CDT,Max TemperatureF,Mean TemperatureF,Min TemperatureF,Max Dew PointF,MeanDew PointF,Min DewpointF,Max Humidity, Mean Humidity, Min Humidity, Max Sea Level PressureIn, Mean Sea Level PressureIn, Min Sea Level PressureIn, Max VisibilityMiles, Mean VisibilityMiles, Min VisibilityMiles, Max Wind SpeedMPH, Mean Wind SpeedMPH, Max Gust SpeedMPH,PrecipitationIn, CloudCover, Events, WindDirDegrees
2013-10-1,77,60,44,54,44,30,93,50,18,29.99,29.80,29.65,10,10,5,15,7,22,0.00,0,,275
2013-10-2,75,57,39,54,43,37,100,63,27,30.07,29.98,29.83,10,10,5,15,4,25,0.16,2,Rain-Thunderstorm,111
2013-10-3,59,58,57,57,56,54,100,94,88,29.90,29.86,29.81,10,8,3,15,7,25,0.92,7,Rain-Thunderstorm,82
2013-10-4,59,58,57,57,56,55,100,94,88,29.97,29.92,29.85,10,7,3,17,7,24,0.06,8,Rain-Thunderstorm,80
2013-10-5,60,52,44,57,54,45,100,90,72,29.90,29.79,29.73,10,9,1,15,7,20,0.26,6,Rain-Thunderstorm,116
2013-10-6,57,50,42,50,44,39,100,86,59,29.83,29.73,29.68,10,8,0,9,1,17,0.00,7,Fog-Rain,307
2013-10-7,68,54,41,48,43,37,100,77,33,30.00,29.92,29.82,10,10,5,13,3,17,0.03,2,,285
2013-10-8,78,60,42,45,43,41,100,53,28,30.00,29.94,29.88,10,10,4,17,7,26,0.00,0,,162
2013-10-9,75,64,53,52,48,45,82,53,36,30.08,30.04,29.95,10,10,10,15,8,22,0.00,0,,166
2013-10-10,75,64,53,52,48,43,72,58,36,30.07,30.00,29.92,10,10,10,14,8,18,0.00,0,,137
2013-10-11,77,68,59,55,53,52,82,60,41,29.92,29.81,29.69,10,10,10,25,12,34,0.00,0,,144
2013-10-12,69,56,41,55,42,37,87,64,45,30.17,29.94,29.72,10,10,7,24,9,32,0.00,3,Rain,267
2013-10-13,60,46,33,39,35,30,100,72,31,30.42,30.35,30.18,10,10,10,10,2,,0.00,0,,292
2013-10-14,55,44,33,46,38,32,100,71,51,30.41,30.23,29.95,10,10,10,18,5,24,0.02,1,Rain,109
2013-10-15,55,52,48,54,48,45,100,90,72,29.96,29.76,29.69,10,8,2,17,10,28,0.79,8,Rain,190
2013-10-16,51,42,33,48,41,34,100,85,58,29.94,29.89,29.76,10,9,3,12,6,17,0.00,6,Rain,321
2013-10-17,57,45,33,46,39,32,100,81,51,29.90,29.82,29.75,10,8,3,7,1,,0.00,2,Rain,299
2013-10-18,53,44,35,45,35,27,93,75,35,29.96,29.89,29.80,10,9,5,13,8,20,0.06,4,Rain,305
2013-10-19,46,38,30,37,35,30,100,84,71,29.84,29.76,29.68,10,10,7,16,3,28,0.03,4,Rain,271
2013-10-20,48,38,28,43,34,28,100,87,66,29.84,29.73,29.60,10,9,5,13,3,24,0.03,6,Rain,197
2013-10-21,39,32,26,34,24,19,93,63,48,29.95,29.92,29.84,10,10,7,17,9,24,0.00,7,Snow,303
2013-10-22,39,30,21,30,26,21,100,84,61,30.02,29.98,29.94,10,10,2,7,2,,0.00,4,Snow,330
2013-10-23,39,34,30,34,27,19,100,74,52,30.08,30.02,29.98,10,10,4,10,3,,0.00,8,Snow,311
2013-10-24,44,38,33,28,25,21,75,61,43,30.30,30.21,30.08,10,10,10,14,6,20,0.00,7,,303
2013-10-25,57,42,26,37,31,25,100,65,41,30.31,30.09,29.77,10,10,7,23,5,34,0.00,3,,235
2013-10-26,50,42,30,39,29,25,93,57,43,30.08,29.97,29.76,10,10,10,17,9,24,0.00,3,,311
2013-10-27,62,43,24,32,28,25,100,63,29,30.10,29.92,29.78,10,10,10,13,3,24,0.00,0,,319
2013-10-28,44,37,30,30,23,19,80,57,37,30.41,30.34,30.11,10,10,10,14,6,22,0.00,0,,70
2013-10-29,44,38,32,37,28,21,81,63,56,30.40,30.24,30.09,10,10,7,10,6,16,0.01,5,Rain,92
2013-10-30,51,46,41,50,44,37,100,94,87,30.08,29.90,29.66,7,3,0,12,4,16,0.09,7,Fog-Rain,106
2013-10-31,51,46,39,50,43,37,100,91,81,29.64,29.47,29.38,10,4,0,13,6,18,0.01,8,Fog-Rain,286